createdAt,value
2023-05-15T00:01:27.052Z,15.30
2023-05-15T00:03:55.367Z,15.30
2023-05-15T00:06:23.797Z,15.30
2023-05-15T00:08:52.015Z,15.30
2023-05-15T00:11:21.435Z,15.20
2023-05-15T00:13:49.546Z,15.20
2023-05-15T00:16:19.070Z,15.20
2023-05-15T00:18:47.253Z,15.20
2023-05-15T00:21:15.463Z,15.20
2023-05-15T00:23:43.589Z,15.10
2023-05-15T00:26:13.693Z,15.20
2023-05-15T00:28:41.794Z,15.10
2023-05-15T00:31:09.988Z,15.00
2023-05-15T00:33:39.497Z,15.00
2023-05-15T00:36:08.601Z,15.00
2023-05-15T00:38:36.778Z,15.00
2023-05-15T00:41:07.414Z,15.00
2023-05-15T00:43:37.491Z,15.00
2023-05-15T00:46:06.051Z,14.90
2023-05-15T00:48:35.045Z,14.90
2023-05-15T00:51:04.770Z,14.80
2023-05-15T00:53:33.063Z,14.80
2023-05-15T00:56:02.112Z,14.80
2023-05-15T00:58:31.738Z,14.90
2023-05-15T01:01:00.332Z,14.80
2023-05-15T01:03:28.580Z,14.70
2023-05-15T01:05:56.785Z,14.70
2023-05-15T01:08:33.316Z,14.80
2023-05-15T01:11:03.980Z,14.80
2023-05-15T01:13:32.207Z,14.80
2023-05-15T01:16:00.705Z,14.70
2023-05-15T01:18:32.420Z,14.70
2023-05-15T01:21:21.619Z,14.60
2023-05-15T01:24:05.035Z,14.60
2023-05-15T01:27:05.559Z,14.70
2023-05-15T01:29:41.582Z,14.70
2023-05-15T01:32:13.139Z,14.60
2023-05-15T01:34:47.055Z,14.60
2023-05-15T01:37:18.393Z,14.60
2023-05-15T01:39:49.054Z,14.60
2023-05-15T01:42:20.040Z,14.50
2023-05-15T01:44:54.710Z,14.40
2023-05-15T01:47:36.504Z,14.50
2023-05-15T01:50:07.438Z,14.50
2023-05-15T01:52:38.007Z,14.50
2023-05-15T01:55:08.513Z,14.50
2023-05-15T01:57:37.905Z,14.50
2023-05-15T02:00:10.080Z,14.50
2023-05-15T02:02:39.610Z,14.50
2023-05-15T02:05:09.907Z,14.40
2023-05-15T02:07:39.343Z,14.30
2023-05-15T02:10:09.278Z,14.30
2023-05-15T02:12:38.451Z,14.40
2023-05-15T02:15:10.090Z,14.40
2023-05-15T02:17:38.624Z,14.40
2023-05-15T02:20:08.586Z,14.40
2023-05-15T02:22:37.058Z,14.40
2023-05-15T02:25:05.862Z,14.40
2023-05-15T02:27:39.961Z,14.40
2023-05-15T02:30:20.394Z,14.30
2023-05-15T02:32:54.187Z,14.40
2023-05-15T02:35:32.933Z,14.40
2023-05-15T02:38:07.896Z,14.40
2023-05-15T02:40:38.500Z,14.30
2023-05-15T02:43:06.936Z,14.30
2023-05-15T02:45:37.350Z,14.40
2023-05-15T02:48:06.706Z,14.30
2023-05-15T02:50:35.094Z,14.40
2023-05-15T02:53:04.284Z,14.30
2023-05-15T02:55:32.648Z,14.30
2023-05-15T02:58:00.805Z,14.20
2023-05-15T03:00:29.182Z,14.20
2023-05-15T03:02:58.785Z,14.20
2023-05-15T03:05:27.399Z,14.10
2023-05-15T03:07:55.907Z,14.10
2023-05-15T03:10:24.307Z,14.10
2023-05-15T03:12:52.497Z,14.20
2023-05-15T03:15:21.201Z,14.10
2023-05-15T03:17:49.448Z,14.20
2023-05-15T03:20:19.177Z,14.10
2023-05-15T03:22:47.323Z,14.00
2023-05-15T03:25:15.550Z,14.10
2023-05-15T03:27:43.667Z,14.00
2023-05-15T03:30:12.309Z,14.10
2023-05-15T03:32:40.504Z,14.00
2023-05-15T03:35:09.889Z,14.10
2023-05-15T03:37:39.410Z,14.10
2023-05-15T03:40:09.312Z,14.10
2023-05-15T03:42:37.556Z,14.20
2023-05-15T03:45:06.589Z,14.20
2023-05-15T03:47:34.771Z,14.10
2023-05-15T03:50:02.929Z,14.10
2023-05-15T03:52:31.127Z,14.20
2023-05-15T03:55:00.668Z,14.20
2023-05-15T03:57:28.803Z,14.30
2023-05-15T03:59:56.953Z,14.30
2023-05-15T04:02:25.166Z,14.10
2023-05-15T04:04:53.453Z,14.20
2023-05-15T04:07:21.643Z,14.30
2023-05-15T04:09:49.740Z,14.20
2023-05-15T04:12:19.526Z,14.10
2023-05-15T04:14:47.633Z,14.20
2023-05-15T04:17:15.782Z,14.10
2023-05-15T04:19:45.898Z,14.10
2023-05-15T04:22:14.101Z,14.20
2023-05-15T04:24:42.273Z,14.20
2023-05-15T04:27:10.474Z,14.20
2023-05-15T04:29:39.980Z,14.20
2023-05-15T04:32:08.769Z,14.20
2023-05-15T04:34:37.023Z,14.10
2023-05-15T04:37:05.660Z,14.20
2023-05-15T04:39:33.816Z,14.20
2023-05-15T04:42:02.329Z,14.20
2023-05-15T04:44:30.454Z,14.20
2023-05-15T04:46:59.984Z,14.20
2023-05-15T04:49:28.160Z,14.30
2023-05-15T04:51:56.267Z,14.20
2023-05-15T04:54:24.593Z,14.20
2023-05-15T04:56:52.724Z,14.10
2023-05-15T04:59:20.927Z,14.10
2023-05-15T05:01:49.170Z,14.30
2023-05-15T05:04:19.578Z,14.20
2023-05-15T05:06:48.048Z,14.20
2023-05-15T05:09:16.234Z,14.10
2023-05-15T05:11:44.457Z,14.20
2023-05-15T05:14:12.691Z,14.20
2023-05-15T05:16:40.819Z,14.20
2023-05-15T05:19:09.175Z,14.30
2023-05-15T05:21:38.733Z,14.40
2023-05-15T05:24:07.071Z,14.30
2023-05-15T05:26:35.421Z,14.20
2023-05-15T05:29:03.542Z,14.20
2023-05-15T05:31:31.782Z,14.20
2023-05-15T05:33:59.951Z,14.20
2023-05-15T05:36:28.206Z,14.10
2023-05-15T05:38:57.739Z,14.10
2023-05-15T05:41:25.944Z,14.10
2023-05-15T05:43:54.069Z,14.20
2023-05-15T05:46:22.261Z,14.20
2023-05-15T05:48:50.557Z,14.20
2023-05-15T05:51:18.674Z,14.30
2023-05-15T05:53:46.913Z,14.30
2023-05-15T05:56:16.527Z,14.30
2023-05-15T05:58:44.721Z,14.40
2023-05-15T06:01:12.924Z,14.40
2023-05-15T06:03:41.731Z,14.50
2023-05-15T06:06:10.028Z,14.50
2023-05-15T06:08:38.186Z,14.50
2023-05-15T06:11:06.583Z,14.50
2023-05-15T06:13:36.104Z,14.60
2023-05-15T06:16:04.394Z,14.70
2023-05-15T06:18:32.564Z,14.60
2023-05-15T06:21:01.311Z,14.60
2023-05-15T06:23:29.443Z,14.70
2023-05-15T06:25:57.653Z,14.60
2023-05-15T06:28:25.852Z,14.50
2023-05-15T06:30:55.419Z,14.60
2023-05-15T06:33:23.593Z,14.70
2023-05-15T06:35:52.146Z,14.70
2023-05-15T06:38:20.296Z,14.70
2023-05-15T06:40:48.504Z,14.70
2023-05-15T06:43:16.682Z,14.60
2023-05-15T06:45:45.152Z,14.50
2023-05-15T06:48:14.715Z,14.50
2023-05-15T06:50:42.889Z,14.40
2023-05-15T06:53:12.260Z,14.30
2023-05-15T06:55:41.955Z,14.20
2023-05-15T06:58:10.095Z,14.10
2023-05-15T07:00:38.266Z,13.80
2023-05-15T07:03:06.473Z,13.90
2023-05-15T07:05:36.138Z,13.70
2023-05-15T07:08:04.400Z,13.70
2023-05-15T07:10:32.645Z,13.50
2023-05-15T07:13:00.803Z,13.40
2023-05-15T07:15:28.940Z,13.40
2023-05-15T07:17:57.924Z,13.40
2023-05-15T07:20:29.672Z,13.40
2023-05-15T07:23:08.339Z,13.40
2023-05-15T07:25:36.519Z,13.30
2023-05-15T07:28:04.846Z,13.30
2023-05-15T07:30:32.978Z,13.40
2023-05-15T07:33:01.360Z,13.30
2023-05-15T07:35:29.524Z,13.40
2023-05-15T07:37:57.722Z,13.40
2023-05-15T07:40:27.272Z,13.40
2023-05-15T07:42:55.408Z,13.40
2023-05-15T07:45:23.903Z,13.60
2023-05-15T07:47:52.390Z,13.50
2023-05-15T07:50:20.604Z,13.40
2023-05-15T07:52:48.814Z,13.40
2023-05-15T07:55:16.963Z,13.40
2023-05-15T07:57:53.479Z,13.50
2023-05-15T08:00:22.804Z,13.50
2023-05-15T08:02:51.276Z,13.60
2023-05-15T08:05:19.630Z,13.60
2023-05-15T08:07:47.795Z,13.60
2023-05-15T08:10:15.922Z,13.70
2023-05-15T08:12:47.131Z,13.70
2023-05-15T08:15:16.629Z,13.80
2023-05-15T08:17:44.920Z,14.00
2023-05-15T08:20:14.205Z,13.90
2023-05-15T08:22:42.371Z,13.90
2023-05-15T08:25:11.602Z,13.90
2023-05-15T08:27:39.739Z,13.80
2023-05-15T08:30:09.255Z,13.80
2023-05-15T08:32:38.813Z,13.60
2023-05-15T08:35:08.110Z,13.60
2023-05-15T08:37:36.324Z,13.60
2023-05-15T08:40:07.940Z,13.60
2023-05-15T08:42:44.159Z,13.60
2023-05-15T08:45:14.281Z,13.50
2023-05-15T08:47:44.710Z,13.40
2023-05-15T08:50:15.194Z,13.40
2023-05-15T08:52:45.459Z,13.50
2023-05-15T08:55:14.405Z,13.50
2023-05-15T08:57:44.005Z,13.50
2023-05-15T09:00:14.795Z,13.60
2023-05-15T09:02:44.763Z,13.70
2023-05-15T09:05:12.974Z,13.60
2023-05-15T09:07:42.261Z,13.70
2023-05-15T09:10:11.799Z,13.70
2023-05-15T09:12:44.401Z,13.60
2023-05-15T09:15:15.993Z,13.60
2023-05-15T09:17:46.683Z,13.70
2023-05-15T09:20:28.304Z,13.70
2023-05-15T09:22:56.578Z,13.60
2023-05-15T09:25:38.491Z,13.60
2023-05-15T09:28:07.417Z,13.70
2023-05-15T09:30:38.437Z,13.80
2023-05-15T09:33:10.146Z,13.70
2023-05-15T09:35:39.700Z,13.70
2023-05-15T09:38:10.774Z,13.80
2023-05-15T09:40:40.307Z,13.90
2023-05-15T09:43:10.720Z,13.80
2023-05-15T09:45:38.981Z,13.70
2023-05-15T09:48:12.397Z,13.70
2023-05-15T09:50:42.538Z,13.70
2023-05-15T09:53:21.512Z,13.60
2023-05-15T09:55:50.388Z,13.60
2023-05-15T09:58:20.007Z,13.60
2023-05-15T10:00:49.668Z,13.70
2023-05-15T10:03:21.149Z,13.70
2023-05-15T10:05:49.547Z,13.70
2023-05-15T10:08:27.246Z,13.70
2023-05-15T10:10:56.280Z,13.70
2023-05-15T10:13:24.773Z,13.70
2023-05-15T10:15:54.333Z,13.70
2023-05-15T10:18:26.229Z,13.60
2023-05-15T10:20:54.478Z,13.50
2023-05-15T10:23:23.935Z,13.40
2023-05-15T10:25:58.892Z,13.60
2023-05-15T10:28:28.261Z,13.70
2023-05-15T10:31:01.065Z,13.60
2023-05-15T10:33:31.215Z,13.30
2023-05-15T10:36:00.429Z,13.30
2023-05-15T10:38:31.595Z,13.30
2023-05-15T10:41:15.791Z,13.20
2023-05-15T10:43:45.796Z,13.20
2023-05-15T10:46:16.089Z,13.10
2023-05-15T10:48:45.709Z,13.20
2023-05-15T10:51:18.137Z,13.10
2023-05-15T10:53:46.661Z,13.00
2023-05-15T10:56:16.680Z,12.90
2023-05-15T10:58:49.399Z,12.90
2023-05-15T11:01:32.076Z,13.10
2023-05-15T11:04:09.621Z,13.10
2023-05-15T11:06:38.852Z,13.00
2023-05-15T11:09:38.859Z,13.00
2023-05-15T11:12:08.871Z,13.10
2023-05-15T11:14:38.611Z,13.10
2023-05-15T11:17:08.872Z,13.00
2023-05-15T11:19:54.104Z,13.10
2023-05-15T11:22:23.555Z,12.90
2023-05-15T11:24:53.997Z,12.90
2023-05-15T11:27:23.636Z,12.90
2023-05-15T11:30:20.577Z,12.90
2023-05-15T11:32:55.490Z,12.80
2023-05-15T11:35:27.854Z,12.80
2023-05-15T11:37:58.291Z,12.80
2023-05-15T11:40:28.150Z,12.80
2023-05-15T11:43:18.522Z,12.90
2023-05-15T11:45:48.593Z,12.80
2023-05-15T11:48:18.411Z,12.90
2023-05-15T11:50:48.198Z,12.90
2023-05-15T11:53:17.447Z,12.90
2023-05-15T11:55:46.264Z,12.90
2023-05-15T11:58:16.316Z,13.00
2023-05-15T12:00:46.043Z,12.90
2023-05-15T12:03:19.254Z,13.00
2023-05-15T12:05:58.402Z,12.90
2023-05-15T12:08:31.909Z,13.00
2023-05-15T12:11:00.485Z,12.90
2023-05-15T12:13:28.963Z,12.90
2023-05-15T12:15:57.521Z,13.00
2023-05-15T12:18:26.146Z,13.00
2023-05-15T12:20:56.144Z,13.00
2023-05-15T12:23:26.876Z,13.00
2023-05-15T12:25:59.030Z,12.90
2023-05-15T12:28:27.899Z,13.00
2023-05-15T12:30:56.494Z,13.00
2023-05-15T12:33:25.031Z,12.90
2023-05-15T12:36:01.241Z,12.90
2023-05-15T12:38:30.678Z,13.00
2023-05-15T12:40:59.050Z,13.00
2023-05-15T12:43:27.811Z,13.00
2023-05-15T12:45:56.400Z,13.00
2023-05-15T12:48:24.925Z,13.00
2023-05-15T12:50:53.126Z,13.10
2023-05-15T12:53:23.171Z,13.10
2023-05-15T12:55:52.552Z,13.10
2023-05-15T12:58:21.119Z,13.20
2023-05-15T13:00:50.802Z,13.10
2023-05-15T13:03:22.424Z,13.20
2023-05-15T13:05:51.303Z,13.20
2023-05-15T13:08:19.970Z,13.20
2023-05-15T13:10:57.180Z,13.20
2023-05-15T13:13:25.530Z,13.20
2023-05-15T13:15:55.572Z,13.20
2023-05-15T13:18:23.747Z,13.30
2023-05-15T13:20:52.671Z,13.20
2023-05-15T13:23:24.006Z,13.20
2023-05-15T13:25:53.577Z,13.20
2023-05-15T13:28:21.712Z,13.20
2023-05-15T13:30:49.888Z,13.20
2023-05-15T13:33:18.197Z,13.20
2023-05-15T13:35:46.745Z,13.10
2023-05-15T13:38:15.043Z,13.10
2023-05-15T13:40:43.170Z,13.10
2023-05-15T13:43:12.734Z,13.10
2023-05-15T13:45:40.894Z,13.10
2023-05-15T13:48:09.111Z,13.20
2023-05-15T13:50:37.390Z,13.20
2023-05-15T13:53:06.189Z,13.20
2023-05-15T13:55:34.449Z,13.20
2023-05-15T13:58:02.887Z,13.20
2023-05-15T14:00:32.460Z,13.20
2023-05-15T14:03:00.753Z,13.30
2023-05-15T14:05:29.114Z,13.20
2023-05-15T14:07:57.323Z,13.30
2023-05-15T14:10:25.648Z,13.30
2023-05-15T14:12:54.033Z,13.40
2023-05-15T14:15:22.165Z,13.40
2023-05-15T14:17:51.711Z,13.50
2023-05-15T14:20:19.971Z,13.50
2023-05-15T14:22:48.121Z,13.50
2023-05-15T14:25:16.328Z,13.60
2023-05-15T14:27:44.526Z,13.60
2023-05-15T14:30:13.917Z,13.70
2023-05-15T14:32:42.495Z,13.70
2023-05-15T14:35:12.076Z,13.80
2023-05-15T14:37:40.230Z,13.80
2023-05-15T14:40:10.128Z,13.80
2023-05-15T14:42:38.293Z,13.90
2023-05-15T14:45:07.095Z,14.00
2023-05-15T14:47:35.387Z,13.90
2023-05-15T14:50:03.648Z,13.90
2023-05-15T14:52:33.208Z,13.90
2023-05-15T14:55:09.206Z,14.00
2023-05-15T14:57:38.159Z,14.00
2023-05-15T15:00:08.165Z,13.90
2023-05-15T15:02:36.470Z,13.90
2023-05-15T15:05:05.733Z,13.90
2023-05-15T15:08:02.321Z,14.00
2023-05-15T15:10:31.268Z,14.00
2023-05-15T15:12:59.824Z,14.10
2023-05-15T15:15:28.408Z,14.10
2023-05-15T15:17:57.248Z,14.10
2023-05-15T15:20:26.471Z,14.20
2023-05-15T15:22:57.025Z,14.20
2023-05-15T15:25:25.226Z,14.20
2023-05-15T15:27:53.699Z,14.20
2023-05-15T15:30:22.076Z,14.40
2023-05-15T15:32:50.226Z,15.00
2023-05-15T15:35:18.399Z,15.20
2023-05-15T15:37:46.527Z,15.30
2023-05-15T15:40:16.112Z,15.20
2023-05-15T15:42:44.321Z,15.20
2023-05-15T15:45:12.687Z,15.30
2023-05-15T15:47:40.841Z,15.60
2023-05-15T15:50:09.730Z,16.10
2023-05-15T15:52:37.920Z,16.20
2023-05-15T15:55:06.956Z,16.20
2023-05-15T15:57:37.891Z,16.00
2023-05-15T16:00:08.291Z,15.70
2023-05-15T16:02:36.870Z,15.80
2023-05-15T16:05:05.779Z,15.70
2023-05-15T16:07:34.157Z,15.40
2023-05-15T16:10:12.409Z,15.30
2023-05-15T16:12:52.354Z,15.20
2023-05-15T16:15:23.414Z,15.20
2023-05-15T16:17:54.124Z,15.10
2023-05-15T16:20:22.867Z,15.00
2023-05-15T16:22:51.073Z,14.90
2023-05-15T16:25:19.191Z,14.90
2023-05-15T16:27:47.321Z,14.90
2023-05-15T16:30:17.272Z,15.00
2023-05-15T16:32:45.573Z,15.00
2023-05-15T16:35:13.744Z,15.00
2023-05-15T16:37:41.900Z,15.00
2023-05-15T16:40:10.773Z,14.90
2023-05-15T16:42:38.948Z,14.90
2023-05-15T16:45:08.429Z,15.00
2023-05-15T16:47:39.266Z,15.00
2023-05-15T16:50:08.599Z,15.10
2023-05-15T16:52:38.605Z,15.10
2023-05-15T16:55:07.673Z,15.10
2023-05-15T16:57:35.857Z,15.10
2023-05-15T17:00:04.678Z,15.00
2023-05-15T17:02:32.829Z,14.90
2023-05-15T17:05:03.197Z,14.80
2023-05-15T17:07:31.467Z,14.80
2023-05-15T17:09:59.593Z,14.70
2023-05-15T17:12:28.049Z,14.60
2023-05-15T17:14:56.275Z,14.60
2023-05-15T17:17:25.817Z,14.50
2023-05-15T17:19:54.443Z,14.50
2023-05-15T17:22:24.538Z,14.50
2023-05-15T17:24:52.866Z,14.50
2023-05-15T17:27:21.272Z,14.50
2023-05-15T17:29:49.727Z,14.50
2023-05-15T17:32:18.842Z,14.50
2023-05-15T17:34:47.608Z,14.50
2023-05-15T17:37:16.122Z,14.40
2023-05-15T17:39:45.637Z,14.40
2023-05-15T17:42:13.740Z,14.40
2023-05-15T17:44:41.839Z,14.40
2023-05-15T17:47:10.609Z,14.40
2023-05-15T17:49:39.217Z,14.30
2023-05-15T17:52:07.583Z,14.30
2023-05-15T17:54:36.954Z,14.30
2023-05-15T17:57:06.973Z,14.30
2023-05-15T17:59:35.300Z,14.30
2023-05-15T18:02:03.519Z,14.40
2023-05-15T18:04:31.794Z,14.30
2023-05-15T18:06:59.872Z,14.30
2023-05-15T18:09:28.142Z,14.30
2023-05-15T18:11:56.287Z,14.20
2023-05-15T18:14:25.853Z,14.10
2023-05-15T18:16:54.051Z,14.10
2023-05-15T18:19:22.746Z,14.10
2023-05-15T18:21:52.569Z,14.00
2023-05-15T18:24:20.726Z,14.00
2023-05-15T18:26:48.855Z,13.90
2023-05-15T18:29:17.101Z,13.90
2023-05-15T18:31:46.608Z,13.90
2023-05-15T18:34:14.736Z,13.90
2023-05-15T18:36:42.912Z,13.90
2023-05-15T18:39:11.005Z,13.90
2023-05-15T18:41:39.182Z,13.90
2023-05-15T18:44:07.344Z,13.90
2023-05-15T18:46:35.968Z,13.90
2023-05-15T18:49:05.535Z,13.90
2023-05-15T18:51:33.652Z,13.90
2023-05-15T18:54:01.818Z,13.90
2023-05-15T18:56:29.942Z,13.90
2023-05-15T18:58:58.055Z,13.90
2023-05-15T19:01:26.295Z,13.90
2023-05-15T19:03:54.400Z,13.90
2023-05-15T19:06:23.897Z,13.80
2023-05-15T19:08:52.034Z,13.80
2023-05-15T19:11:20.149Z,13.80
2023-05-15T19:13:48.297Z,13.70
2023-05-15T19:16:22.073Z,13.70
2023-05-15T19:18:50.346Z,13.60
2023-05-15T19:21:23.108Z,13.60
2023-05-15T19:23:51.886Z,13.50
2023-05-15T19:26:28.551Z,13.40
2023-05-15T19:28:56.988Z,13.40
2023-05-15T19:31:31.443Z,13.30
2023-05-15T19:34:00.883Z,13.20
2023-05-15T19:36:36.894Z,13.10
2023-05-15T19:39:05.125Z,13.00
2023-05-15T19:41:33.286Z,13.00
2023-05-15T19:44:07.287Z,12.90
2023-05-15T19:46:35.771Z,12.80
2023-05-15T19:49:06.932Z,12.80
2023-05-15T19:51:40.690Z,12.70
2023-05-15T19:54:09.789Z,12.60
2023-05-15T19:56:37.997Z,12.50
2023-05-15T19:59:06.220Z,12.50
2023-05-15T20:01:34.518Z,12.50
2023-05-15T20:04:02.707Z,12.40
2023-05-15T20:06:30.849Z,12.40
2023-05-15T20:09:00.453Z,12.30
2023-05-15T20:11:28.559Z,12.30
2023-05-15T20:13:56.644Z,12.30
2023-05-15T20:16:24.859Z,12.20
2023-05-15T20:18:55.106Z,12.20
2023-05-15T20:21:23.276Z,12.20
2023-05-15T20:23:56.399Z,12.10
2023-05-15T20:26:28.477Z,12.10
2023-05-15T20:28:58.969Z,12.10
2023-05-15T20:31:31.887Z,12.00
2023-05-15T20:34:07.203Z,12.00
2023-05-15T20:36:38.293Z,12.00
2023-05-15T20:39:07.550Z,12.00
2023-05-15T20:41:37.558Z,12.00
2023-05-15T20:44:07.235Z,12.00
2023-05-15T20:46:37.674Z,12.00
2023-05-15T20:49:05.823Z,12.00
2023-05-15T20:51:36.323Z,11.90
2023-05-15T20:54:04.543Z,11.90
2023-05-15T20:56:32.681Z,11.90
2023-05-15T20:59:02.274Z,11.80
2023-05-15T21:01:30.401Z,11.80
2023-05-15T21:03:58.660Z,11.80
2023-05-15T21:06:26.898Z,11.70
2023-05-15T21:08:55.049Z,11.70
2023-05-15T21:11:23.326Z,11.70
2023-05-15T21:13:51.476Z,11.70
2023-05-15T21:16:21.022Z,11.70
2023-05-15T21:18:49.288Z,11.70
2023-05-15T21:21:17.649Z,11.70
2023-05-15T21:23:45.848Z,11.70
2023-05-15T21:26:14.135Z,11.60
2023-05-15T21:28:42.225Z,11.60
2023-05-15T21:31:11.215Z,11.70
2023-05-15T21:33:41.339Z,11.60
2023-05-15T21:36:09.909Z,11.60
2023-05-15T21:38:38.197Z,11.60
2023-05-15T21:41:06.458Z,11.60
2023-05-15T21:43:34.699Z,11.60
2023-05-15T21:46:03.449Z,11.60
2023-05-15T21:48:32.039Z,11.60
2023-05-15T21:51:01.515Z,11.50
2023-05-15T21:53:29.668Z,11.60
2023-05-15T21:56:00.172Z,11.50
2023-05-15T21:58:28.355Z,11.60
2023-05-15T22:00:56.498Z,11.60
2023-05-15T22:03:25.129Z,11.50
2023-05-15T22:05:53.429Z,11.50
2023-05-15T22:08:23.038Z,11.50
2023-05-15T22:10:51.231Z,11.60
2023-05-15T22:13:19.322Z,11.60
2023-05-15T22:15:47.448Z,11.50
2023-05-15T22:18:16.253Z,11.50
2023-05-15T22:20:45.091Z,11.50
2023-05-15T22:23:13.219Z,11.50
2023-05-15T22:25:42.698Z,11.50
2023-05-15T22:28:10.832Z,11.60
2023-05-15T22:30:38.924Z,11.60
2023-05-15T22:33:07.211Z,11.60
2023-05-15T22:35:35.375Z,11.70
2023-05-15T22:38:04.478Z,11.70
2023-05-15T22:40:32.567Z,11.80
2023-05-15T22:43:02.125Z,11.80
2023-05-15T22:45:30.381Z,11.90
2023-05-15T22:47:58.653Z,11.90
2023-05-15T22:50:27.164Z,11.90
2023-05-15T22:52:55.451Z,11.90
2023-05-15T22:55:23.523Z,11.90
2023-05-15T22:57:51.646Z,11.90
2023-05-15T23:00:21.747Z,11.90
2023-05-15T23:02:49.995Z,12.00
2023-05-15T23:05:18.202Z,12.00
2023-05-15T23:07:46.511Z,12.00
2023-05-15T23:10:14.605Z,12.00
2023-05-15T23:12:42.707Z,12.00
2023-05-15T23:15:11.685Z,12.00
2023-05-15T23:17:41.329Z,12.00
2023-05-15T23:20:11.165Z,11.90
2023-05-15T23:22:39.450Z,12.00
2023-05-15T23:25:08.451Z,11.90
2023-05-15T23:27:36.861Z,11.90
2023-05-15T23:30:05.709Z,11.90
2023-05-15T23:32:33.812Z,11.90
2023-05-15T23:35:03.344Z,11.90
2023-05-15T23:37:31.425Z,11.90
2023-05-15T23:39:59.496Z,11.90
2023-05-15T23:42:27.617Z,11.80
2023-05-15T23:44:55.903Z,11.90
2023-05-15T23:47:24.070Z,11.80
2023-05-15T23:49:52.216Z,11.80
2023-05-15T23:52:21.703Z,11.80
2023-05-15T23:54:49.986Z,11.80
2023-05-15T23:57:18.212Z,11.80
2023-05-15T23:59:46.295Z,11.70
